Time;durP1;ratioP1;P1;durP2;ratioP2;P2;SDS_P1;SDS_P2;PMS_P1;PMS_P2;Temp;Humidity;BMP_temperature;BMP_pressure;BME280_temperature;BME280_humidity;BME280_pressure;Samples;Min_cycle;Max_cycle;Signal;HPM_P1;HPM_P2
2022/07/21 00:00:04;;;;;;;;;;;;;;;;;;2106151;28;19924;-42
2022/07/21 00:01:05;;;;;;;;;;;;;;;;;;2106053;28;20069;-43
2022/07/21 00:02:06;;;;;;;;;;;;;;;;;;2105994;28;20406;-43
2022/07/21 00:03:07;;;;;;;;;;;;;;;;;;2106241;28;19924;-46
2022/07/21 00:04:08;;;;;;;;;;;;;;;;;;2105973;28;19928;-45
2022/07/21 00:05:08;;;;;;;;;;;;;;;;;;2106006;28;20006;-45
2022/07/21 00:06:10;;;;;;;;;;;;;;;;;;2106231;28;19924;-45
2022/07/21 00:07:10;;;;;;;;;;;;;;;;;;2105940;28;19955;-44
2022/07/21 00:08:12;;;;;;;;;;;;;;;;;;2106110;28;20270;-44
2022/07/21 00:09:13;;;;;;;;;;;;;;;;;;2105834;28;19967;-44
2022/07/21 00:10:14;;;;;;;;;;;;;;;;;;2106027;28;20296;-44
2022/07/21 00:11:15;;;;;;;;;;;;;;;;;;2102971;28;19974;-44
2022/07/21 00:12:16;;;;;;;;;;;;;;;;;;2097777;28;20003;-45
2022/07/21 00:13:17;;;;;;;;;;;;;;;;;;2097563;28;19933;-44
2022/07/21 00:14:18;;;;;;;;;;;;;;;;;;2097597;28;19946;-45
2022/07/21 00:15:19;;;;;;;;;;;;;;;;;;2097564;28;19931;-45
2022/07/21 00:16:20;;;;;;;;;;;;;;;;;;2097552;28;19932;-44
2022/07/21 00:17:24;;;;;;;;;;;;;;;;;;2097544;28;20428;-45
2022/07/21 00:18:27;;;;;;;;;;;;;;;;;;2097530;28;19970;-46
2022/07/21 00:19:28;;;;;;;;;;;;;;;;;;2097565;28;20434;-45
2022/07/21 00:20:30;;;;;;;;;;;;;;;;;;2097506;28;19970;-44
2022/07/21 00:21:31;;;;;;;;;;;;;;;;;;2097511;28;19968;-45
2022/07/21 00:22:32;;;;;;;;;;;;;;;;;;2097754;28;19967;-46
2022/07/21 00:23:33;;;;;;;;;;;;;;;;;;2097517;28;20002;-44
2022/07/21 00:24:34;;;;;;;;;;;;;;;;;;2097504;28;19924;-46
2022/07/21 00:25:34;;;;;;;;;;;;;;;;;;2097508;28;20393;-44
2022/07/21 00:26:35;;;;;;;;;;;;;;;;;;2097437;28;20028;-45
2022/07/21 00:27:36;;;;;;;;;;;;;;;;;;2097539;28;19952;-45
2022/07/21 00:28:37;;;;;;;;;;;;;;;;;;2097639;28;19955;-44
2022/07/21 00:29:38;;;;;;;;;;;;;;;;;;2097496;28;19962;-45
2022/07/21 00:30:39;;;;;;;;;;;;;;;;;;2097355;28;19924;-45
2022/07/21 00:31:40;;;;;;;;;;;;;;;;;;2097390;28;20331;-45
2022/07/21 00:32:41;;;;;;;;;;;;;;;;;;2097509;28;19970;-44
2022/07/21 00:33:41;;;;;;;;;;;;;;;;;;2097387;28;19932;-45
2022/07/21 00:34:43;;;;;;;;;;;;;;;;;;2097623;28;19974;-45
2022/07/21 00:35:44;;;;;;;;;;;;;;;;;;2097709;28;20047;-42
2022/07/21 00:36:45;;;;;;;;;;;;;;;;;;2097408;28;19924;-42
2022/07/21 00:37:46;;;;;;;;;;;;;;;;;;2097756;28;19924;-46
2022/07/21 00:38:47;;;;;;;;;;;;;;;;;;2098572;28;19924;-45
2022/07/21 00:39:48;;;;;;;;;;;;;;;;;;2098941;28;20015;-45
2022/07/21 00:40:49;;;;;;;;;;;;;;;;;;2098912;28;19924;-46
2022/07/21 00:41:49;;;;;;;;;;;;;;;;;;2098825;28;19971;-46
2022/07/21 00:42:50;;;;;;;;;;;;;;;;;;2099041;28;19964;-46
2022/07/21 00:43:51;;;;;;;;;;;;;;;;;;2098866;28;19947;-45
2022/07/21 00:44:52;;;;;;;;;;;;;;;;;;2099066;28;19931;-45
2022/07/21 00:45:53;;;;;;;;;;;;;;;;;;2099035;28;19978;-45
2022/07/21 00:46:54;;;;;;;;;;;;;;;;;;2098892;28;19964;-44
2022/07/21 00:47:55;;;;;;;;;;;;;;;;;;2098811;28;20020;-45
2022/07/21 00:48:56;;;;;;;;;;;;;;;;;;2099004;28;19932;-44
2022/07/21 00:49:57;;;;;;;;;;;;;;;;;;2098811;28;19924;-44
2022/07/21 00:50:58;;;;;;;;;;;;;;;;;;2098829;28;19974;-44
2022/07/21 00:51:59;;;;;;;;;;;;;;;;;;2098813;28;20061;-45
2022/07/21 00:53:00;;;;;;;;;;;;;;;;;;2099638;28;19932;-46
2022/07/21 00:54:01;;;;;;;;;;;;;;;;;;2107124;28;19959;-44
2022/07/21 00:55:02;;;;;;;;;;;;;;;;;;2107277;28;19928;-44
2022/07/21 00:56:03;;;;;;;;;;;;;;;;;;2107140;28;19979;-44
2022/07/21 00:57:04;;;;;;;;;;;;;;;;;;2107244;28;19924;-45
2022/07/21 00:58:04;;;;;;;;;;;;;;;;;;2107241;28;19963;-42
2022/07/21 00:59:05;;;;;;;;;;;;;;;;;;2107147;28;19924;-42
2022/07/21 01:00:06;;;;;;;;;;;;;;;;;;2107119;28;20389;-42
2022/07/21 01:01:07;;;;;;;;;;;;;;;;;;2106913;28;19931;-42
2022/07/21 01:02:08;;;;;;;;;;;;;;;;;;2107106;28;19950;-42
2022/07/21 01:03:09;;;;;;;;;;;;;;;;;;2107047;28;20022;-42
2022/07/21 01:04:10;;;;;;;;;;;;;;;;;;2107158;28;19974;-43
2022/07/21 01:05:14;;;;;;;;;;;;;;;;;;2107154;28;19935;-42
2022/07/21 01:06:15;;;;;;;;;;;;;;;;;;2107085;28;19968;-42
2022/07/21 01:07:16;;;;;;;;;;;;;;;;;;2106998;28;20449;-42
2022/07/21 01:08:17;;;;;;;;;;;;;;;;;;2107201;28;20022;-42
2022/07/21 01:09:18;;;;;;;;;;;;;;;;;;2107223;28;19939;-42
2022/07/21 01:10:18;;;;;;;;;;;;;;;;;;2106992;28;19963;-42
2022/07/21 01:11:20;;;;;;;;;;;;;;;;;;2103655;28;19924;-42
2022/07/21 01:12:21;;;;;;;;;;;;;;;;;;2098639;28;20376;-42
2022/07/21 01:13:22;;;;;;;;;;;;;;;;;;2098634;28;19935;-42
2022/07/21 01:14:23;;;;;;;;;;;;;;;;;;2098615;28;20428;-42
2022/07/21 01:15:24;;;;;;;;;;;;;;;;;;2098694;28;19924;-42
2022/07/21 01:16:24;;;;;;;;;;;;;;;;;;2098636;28;19925;-42
2022/07/21 01:17:26;;;;;;;;;;;;;;;;;;2098751;28;19925;-42
2022/07/21 01:18:27;;;;;;;;;;;;;;;;;;2098670;28;19928;-42
2022/07/21 01:19:27;;;;;;;;;;;;;;;;;;2098644;28;19947;-42
2022/07/21 01:20:28;;;;;;;;;;;;;;;;;;2098853;28;19924;-42
2022/07/21 01:21:29;;;;;;;;;;;;;;;;;;2098811;28;20382;-43
2022/07/21 01:22:30;;;;;;;;;;;;;;;;;;2098608;28;19946;-42
2022/07/21 01:23:31;;;;;;;;;;;;;;;;;;2098536;28;20372;-42
2022/07/21 01:24:32;;;;;;;;;;;;;;;;;;2098873;28;19925;-44
2022/07/21 01:25:33;;;;;;;;;;;;;;;;;;2098504;28;20027;-44
2022/07/21 01:26:34;;;;;;;;;;;;;;;;;;2103603;28;19924;-45
2022/07/21 01:27:34;;;;;;;;;;;;;;;;;;2106993;28;20579;-45
2022/07/21 01:28:35;;;;;;;;;;;;;;;;;;2107042;28;19924;-45
2022/07/21 01:29:36;;;;;;;;;;;;;;;;;;2106907;28;20044;-44
2022/07/21 01:30:37;;;;;;;;;;;;;;;;;;2107017;28;19930;-44
2022/07/21 01:31:38;;;;;;;;;;;;;;;;;;2106958;28;19924;-44
2022/07/21 01:32:39;;;;;;;;;;;;;;;;;;2106880;28;20018;-44
2022/07/21 01:33:40;;;;;;;;;;;;;;;;;;2106923;28;20297;-44
2022/07/21 01:34:41;;;;;;;;;;;;;;;;;;2106859;28;20082;-45
2022/07/21 01:35:42;;;;;;;;;;;;;;;;;;2107030;28;19924;-46
2022/07/21 01:36:43;;;;;;;;;;;;;;;;;;2106820;28;19931;-45
2022/07/21 01:37:43;;;;;;;;;;;;;;;;;;2106856;28;20304;-44
2022/07/21 01:41:29;;;;;;;;;;;;;;;;;;2106753;28;20471;-44
2022/07/21 01:42:30;;;;;;;;;;;;;;;;;;2107109;28;20400;-42
2022/07/21 01:43:31;;;;;;;;;;;;;;;;;;2106872;28;19924;-43
2022/07/21 01:44:31;;;;;;;;;;;;;;;;;;2106947;28;19967;-43
2022/07/21 01:45:32;;;;;;;;;;;;;;;;;;2106864;28;19990;-42
2022/07/21 01:46:33;;;;;;;;;;;;;;;;;;2106805;28;19924;-43
2022/07/21 01:47:34;;;;;;;;;;;;;;;;;;2106843;28;20369;-42
2022/07/21 01:48:35;;;;;;;;;;;;;;;;;;2106923;28;20005;-43
2022/07/21 01:49:36;;;;;;;;;;;;;;;;;;2106408;28;19977;-42
2022/07/21 01:50:37;;;;;;;;;;;;;;;;;;2106598;28;20018;-43
2022/07/21 01:51:38;;;;;;;;;;;;;;;;;;2106900;28;19928;-43
2022/07/21 01:52:39;;;;;;;;;;;;;;;;;;2106792;28;19971;-43
2022/07/21 01:53:40;;;;;;;;;;;;;;;;;;2106854;28;19970;-42
2022/07/21 01:54:41;;;;;;;;;;;;;;;;;;2107002;28;19990;-42
2022/07/21 01:55:42;;;;;;;;;;;;;;;;;;2106809;28;20011;-43
2022/07/21 01:56:43;;;;;;;;;;;;;;;;;;2106746;28;19928;-42
2022/07/21 01:57:44;;;;;;;;;;;;;;;;;;2106749;28;19924;-43
2022/07/21 01:58:44;;;;;;;;;;;;;;;;;;2106827;28;20015;-43
2022/07/21 01:59:45;;;;;;;;;;;;;;;;;;2106678;28;19930;-43
2022/07/21 02:00:46;;;;;;;;;;;;;;;;;;2107103;28;19924;-45
2022/07/21 02:01:47;;;;;;;;;;;;;;;;;;2106582;28;20007;-45
2022/07/21 02:02:48;;;;;;;;;;;;;;;;;;2106771;28;20015;-44
2022/07/21 02:03:49;;;;;;;;;;;;;;;;;;2106664;28;19985;-45
2022/07/21 02:04:50;;;;;;;;;;;;;;;;;;2106826;28;19924;-45
2022/07/21 02:05:51;;;;;;;;;;;;;;;;;;2106717;28;20282;-44
2022/07/21 02:06:52;;;;;;;;;;;;;;;;;;2106876;28;20389;-46
2022/07/21 02:07:53;;;;;;;;;;;;;;;;;;2106807;28;19935;-45
2022/07/21 02:08:54;;;;;;;;;;;;;;;;;;2106545;28;20001;-45
2022/07/21 02:09:55;;;;;;;;;;;;;;;;;;2106665;28;19924;-45
2022/07/21 02:10:56;;;;;;;;;;;;;;;;;;2106266;28;19931;-45
2022/07/21 02:11:58;;;;;;;;;;;;;;;;;;2098245;28;19931;-45
2022/07/21 02:12:59;;;;;;;;;;;;;;;;;;2098333;28;20018;-44
2022/07/21 02:14:01;;;;;;;;;;;;;;;;;;2098599;28;19924;-44
2022/07/21 02:15:02;;;;;;;;;;;;;;;;;;2098166;28;20390;-43
2022/07/21 02:16:03;;;;;;;;;;;;;;;;;;2098411;28;19936;-43
2022/07/21 02:17:03;;;;;;;;;;;;;;;;;;2098284;28;19968;-42
2022/07/21 02:18:05;;;;;;;;;;;;;;;;;;2098266;28;19929;-42
2022/07/21 02:19:05;;;;;;;;;;;;;;;;;;2098335;28;20388;-42
2022/07/21 02:20:06;;;;;;;;;;;;;;;;;;2098451;28;19978;-45
2022/07/21 02:21:07;;;;;;;;;;;;;;;;;;2098312;28;20007;-45
2022/07/21 02:22:08;;;;;;;;;;;;;;;;;;2098265;28;19932;-45
2022/07/21 02:23:09;;;;;;;;;;;;;;;;;;2098231;28;19925;-44
2022/07/21 02:24:10;;;;;;;;;;;;;;;;;;2098132;28;19931;-45
2022/07/21 02:25:11;;;;;;;;;;;;;;;;;;2098356;28;19924;-45
2022/07/21 02:26:12;;;;;;;;;;;;;;;;;;2098445;28;19925;-45
2022/07/21 02:27:12;;;;;;;;;;;;;;;;;;2098241;28;19935;-45
2022/07/21 02:28:13;;;;;;;;;;;;;;;;;;2098141;28;19932;-47
2022/07/21 02:29:14;;;;;;;;;;;;;;;;;;2098521;28;19959;-42
2022/07/21 02:30:15;;;;;;;;;;;;;;;;;;2098269;28;19936;-42
2022/07/21 02:31:16;;;;;;;;;;;;;;;;;;2098470;28;19928;-43
2022/07/21 02:32:17;;;;;;;;;;;;;;;;;;2098184;28;20380;-43
2022/07/21 02:33:18;;;;;;;;;;;;;;;;;;2098035;28;20019;-43
2022/07/21 02:34:19;;;;;;;;;;;;;;;;;;2098265;28;19932;-42
2022/07/21 02:35:20;;;;;;;;;;;;;;;;;;2098189;28;19952;-42
2022/07/21 02:36:21;;;;;;;;;;;;;;;;;;2098266;28;19924;-42
2022/07/21 02:37:22;;;;;;;;;;;;;;;;;;2098105;28;19959;-43
2022/07/21 02:38:23;;;;;;;;;;;;;;;;;;2098238;28;19968;-42
2022/07/21 02:39:25;;;;;;;;;;;;;;;;;;2098122;28;19928;-43
2022/07/21 02:40:26;;;;;;;;;;;;;;;;;;2097992;28;20455;-43
2022/07/21 02:41:27;;;;;;;;;;;;;;;;;;2098222;28;20228;-43
2022/07/21 02:42:28;;;;;;;;;;;;;;;;;;2098005;28;19973;-43
2022/07/21 02:43:29;;;;;;;;;;;;;;;;;;2098152;28;20358;-43
2022/07/21 02:44:30;;;;;;;;;;;;;;;;;;2098173;28;19924;-43
2022/07/21 02:45:31;;;;;;;;;;;;;;;;;;2098863;28;19924;-42
2022/07/21 02:46:32;;;;;;;;;;;;;;;;;;2106561;28;19967;-43
2022/07/21 02:47:33;;;;;;;;;;;;;;;;;;2106687;28;20022;-45
2022/07/21 02:48:34;;;;;;;;;;;;;;;;;;2106420;28;19946;-45
2022/07/21 02:49:35;;;;;;;;;;;;;;;;;;2106470;28;19970;-45
2022/07/21 02:50:36;;;;;;;;;;;;;;;;;;2106533;28;19924;-43
2022/07/21 02:51:37;;;;;;;;;;;;;;;;;;2106453;28;20024;-42
2022/07/21 02:52:37;;;;;;;;;;;;;;;;;;2106376;28;19967;-43
2022/07/21 02:53:39;;;;;;;;;;;;;;;;;;2106336;28;19977;-42
2022/07/21 02:54:40;;;;;;;;;;;;;;;;;;2106388;28;20006;-43
2022/07/21 02:55:41;;;;;;;;;;;;;;;;;;2106349;28;20369;-43
2022/07/21 02:56:42;;;;;;;;;;;;;;;;;;2106476;28;19924;-42
2022/07/21 02:57:43;;;;;;;;;;;;;;;;;;2106284;28;19954;-42
2022/07/21 02:58:44;;;;;;;;;;;;;;;;;;2106544;28;20023;-43
2022/07/21 02:59:45;;;;;;;;;;;;;;;;;;2106433;28;20019;-43
2022/07/21 03:00:45;;;;;;;;;;;;;;;;;;2105866;28;19931;-44
2022/07/21 03:01:47;;;;;;;;;;;;;;;;;;2105960;28;20003;-45
2022/07/21 03:02:48;;;;;;;;;;;;;;;;;;2106377;28;19924;-45
2022/07/21 03:03:48;;;;;;;;;;;;;;;;;;2106453;28;19959;-44
2022/07/21 03:04:50;;;;;;;;;;;;;;;;;;2106315;28;20403;-44
2022/07/21 03:05:50;;;;;;;;;;;;;;;;;;2106296;28;19924;-44
2022/07/21 03:06:51;;;;;;;;;;;;;;;;;;2106156;28;19924;-45
2022/07/21 03:07:52;;;;;;;;;;;;;;;;;;2106333;28;20477;-46
2022/07/21 03:08:53;;;;;;;;;;;;;;;;;;2106299;28;19928;-45
2022/07/21 03:09:55;;;;;;;;;;;;;;;;;;2106435;28;19924;-44
2022/07/21 03:10:56;;;;;;;;;;;;;;;;;;2105985;28;19924;-43
2022/07/21 03:11:57;;;;;;;;;;;;;;;;;;2097941;28;19929;-43
2022/07/21 03:12:58;;;;;;;;;;;;;;;;;;2098277;28;19931;-42
2022/07/21 03:13:58;;;;;;;;;;;;;;;;;;2098059;28;19964;-46
2022/07/21 03:14:59;;;;;;;;;;;;;;;;;;2097949;28;19925;-45
2022/07/21 03:16:00;;;;;;;;;;;;;;;;;;2097806;28;19960;-45
2022/07/21 03:17:02;;;;;;;;;;;;;;;;;;2098570;28;19967;-44
2022/07/21 03:18:03;;;;;;;;;;;;;;;;;;2097925;28;19967;-45
2022/07/21 03:19:03;;;;;;;;;;;;;;;;;;2098234;28;19986;-45
2022/07/21 03:20:09;;;;;;;;;;;;;;;;;;2097891;28;20284;-45
2022/07/21 03:21:10;;;;;;;;;;;;;;;;;;2097785;28;20015;-45
2022/07/21 03:22:11;;;;;;;;;;;;;;;;;;2097953;28;19964;-45
2022/07/21 03:23:12;;;;;;;;;;;;;;;;;;2098069;28;19924;-43
2022/07/21 03:24:13;;;;;;;;;;;;;;;;;;2097840;28;20413;-44
2022/07/21 03:25:14;;;;;;;;;;;;;;;;;;2098209;28;20305;-43
2022/07/21 03:26:15;;;;;;;;;;;;;;;;;;2098010;28;19971;-43
2022/07/21 03:27:16;;;;;;;;;;;;;;;;;;2097796;28;19935;-44
2022/07/21 03:28:17;;;;;;;;;;;;;;;;;;2097925;28;19929;-43
2022/07/21 03:29:18;;;;;;;;;;;;;;;;;;2097894;28;19963;-43
2022/07/21 03:30:19;;;;;;;;;;;;;;;;;;2098169;28;20316;-43
2022/07/21 03:31:20;;;;;;;;;;;;;;;;;;2097603;28;19950;-43
2022/07/21 03:32:21;;;;;;;;;;;;;;;;;;2098125;28;19924;-47
2022/07/21 03:33:22;;;;;;;;;;;;;;;;;;2097881;28;19960;-47
2022/07/21 03:34:23;;;;;;;;;;;;;;;;;;2097714;28;19979;-45
2022/07/21 03:35:24;;;;;;;;;;;;;;;;;;2097954;28;19924;-45
2022/07/21 03:36:25;;;;;;;;;;;;;;;;;;2097618;28;20022;-46
2022/07/21 03:37:26;;;;;;;;;;;;;;;;;;2097781;28;19925;-46
2022/07/21 03:38:27;;;;;;;;;;;;;;;;;;2097735;28;19967;-46
2022/07/21 03:39:28;;;;;;;;;;;;;;;;;;2097907;28;19925;-46
2022/07/21 03:40:29;;;;;;;;;;;;;;;;;;2097621;28;20320;-46
2022/07/21 03:41:30;;;;;;;;;;;;;;;;;;2097801;28;19968;-45
2022/07/21 03:42:31;;;;;;;;;;;;;;;;;;2104804;28;20026;-44
2022/07/21 03:43:31;;;;;;;;;;;;;;;;;;2106113;28;19924;-44
2022/07/21 03:44:33;;;;;;;;;;;;;;;;;;2106066;28;19951;-43
2022/07/21 03:45:33;;;;;;;;;;;;;;;;;;2106100;28;20028;-43
2022/07/21 03:46:34;;;;;;;;;;;;;;;;;;2106161;28;19924;-44
2022/07/21 03:47:35;;;;;;;;;;;;;;;;;;2106134;28;19931;-44
2022/07/21 03:48:36;;;;;;;;;;;;;;;;;;2106015;28;20296;-44
2022/07/21 03:49:37;;;;;;;;;;;;;;;;;;2106093;28;19968;-43
2022/07/21 03:50:38;;;;;;;;;;;;;;;;;;2106082;28;20373;-44
2022/07/21 03:51:39;;;;;;;;;;;;;;;;;;2105907;28;19955;-44
2022/07/21 03:52:40;;;;;;;;;;;;;;;;;;2106152;28;19970;-44
2022/07/21 03:53:41;;;;;;;;;;;;;;;;;;2106015;28;20234;-43
2022/07/21 03:54:42;;;;;;;;;;;;;;;;;;2106452;28;19924;-45
2022/07/21 03:55:43;;;;;;;;;;;;;;;;;;2106205;28;19974;-43
2022/07/21 03:56:43;;;;;;;;;;;;;;;;;;2106166;28;19967;-43
2022/07/21 03:57:46;;;;;;;;;;;;;;;;;;2106037;28;19959;-44
2022/07/21 03:58:46;;;;;;;;;;;;;;;;;;2105906;28;20289;-44
2022/07/21 03:59:48;;;;;;;;;;;;;;;;;;2106213;28;19932;-43
2022/07/21 04:00:48;;;;;;;;;;;;;;;;;;2106042;28;19960;-43
2022/07/21 04:01:49;;;;;;;;;;;;;;;;;;2105965;28;19924;-43
2022/07/21 04:02:50;;;;;;;;;;;;;;;;;;2106173;28;19974;-45
2022/07/21 04:03:51;;;;;;;;;;;;;;;;;;2106350;28;19939;-45
2022/07/21 04:04:52;;;;;;;;;;;;;;;;;;2106306;28;20383;-43
2022/07/21 04:05:53;;;;;;;;;;;;;;;;;;2106251;28;19958;-44
2022/07/21 04:06:54;;;;;;;;;;;;;;;;;;2106103;28;19924;-43
2022/07/21 04:07:55;;;;;;;;;;;;;;;;;;2105911;28;19924;-44
2022/07/21 04:08:56;;;;;;;;;;;;;;;;;;2106025;28;19925;-43
2022/07/21 04:09:57;;;;;;;;;;;;;;;;;;2106526;28;19940;-46
2022/07/21 04:10:58;;;;;;;;;;;;;;;;;;2105798;28;19991;-45
2022/07/21 04:11:59;;;;;;;;;;;;;;;;;;2097581;28;20409;-44
2022/07/21 04:13:00;;;;;;;;;;;;;;;;;;2099719;28;20010;-45
2022/07/21 04:14:01;;;;;;;;;;;;;;;;;;2098981;28;19978;-45
2022/07/21 04:15:02;;;;;;;;;;;;;;;;;;2099045;28;19956;-45
2022/07/21 04:16:03;;;;;;;;;;;;;;;;;;2099201;28;19974;-44
2022/07/21 04:17:04;;;;;;;;;;;;;;;;;;2099335;28;19925;-44
2022/07/21 04:18:05;;;;;;;;;;;;;;;;;;2099091;28;19931;-43
2022/07/21 04:19:06;;;;;;;;;;;;;;;;;;2099036;28;19975;-43
2022/07/21 04:20:07;;;;;;;;;;;;;;;;;;2099645;28;20023;-43
2022/07/21 04:21:08;;;;;;;;;;;;;;;;;;2099847;28;20009;-43
2022/07/21 04:22:09;;;;;;;;;;;;;;;;;;2099776;28;20391;-45
2022/07/21 04:23:10;;;;;;;;;;;;;;;;;;2099035;28;19955;-46
2022/07/21 04:24:11;;;;;;;;;;;;;;;;;;2099371;28;19924;-43
2022/07/21 04:25:11;;;;;;;;;;;;;;;;;;2099613;28;20357;-45
2022/07/21 04:26:12;;;;;;;;;;;;;;;;;;2099323;28;19931;-43
2022/07/21 04:27:13;;;;;;;;;;;;;;;;;;2099379;28;19935;-43
2022/07/21 04:28:14;;;;;;;;;;;;;;;;;;2098917;28;20402;-44
2022/07/21 04:29:15;;;;;;;;;;;;;;;;;;2099114;28;19932;-45
2022/07/21 04:30:16;;;;;;;;;;;;;;;;;;2099248;28;19928;-43
2022/07/21 04:31:17;;;;;;;;;;;;;;;;;;2099146;28;20044;-44
2022/07/21 04:32:18;;;;;;;;;;;;;;;;;;2099581;28;19978;-45
2022/07/21 04:33:18;;;;;;;;;;;;;;;;;;2098946;28;19955;-45
2022/07/21 04:34:20;;;;;;;;;;;;;;;;;;2099448;28;19924;-44
2022/07/21 04:35:21;;;;;;;;;;;;;;;;;;2098993;28;19964;-43
2022/07/21 04:36:21;;;;;;;;;;;;;;;;;;2099182;28;19967;-47
2022/07/21 04:37:22;;;;;;;;;;;;;;;;;;2099242;28;20000;-45
2022/07/21 04:38:23;;;;;;;;;;;;;;;;;;2103169;28;20440;-46
2022/07/21 04:39:24;;;;;;;;;;;;;;;;;;2107138;28;19990;-45
2022/07/21 04:40:25;;;;;;;;;;;;;;;;;;2107406;28;19951;-45
2022/07/21 04:41:26;;;;;;;;;;;;;;;;;;2107351;28;19963;-46
2022/07/21 04:42:27;;;;;;;;;;;;;;;;;;2107548;28;19928;-45
2022/07/21 04:43:28;;;;;;;;;;;;;;;;;;2107538;28;19931;-43
2022/07/21 04:44:29;;;;;;;;;;;;;;;;;;2107259;28;19947;-42
2022/07/21 04:45:30;;;;;;;;;;;;;;;;;;2107315;28;20016;-43
2022/07/21 04:46:31;;;;;;;;;;;;;;;;;;2107447;28;20323;-44
2022/07/21 04:47:32;;;;;;;;;;;;;;;;;;2107687;28;20503;-45
2022/07/21 04:48:33;;;;;;;;;;;;;;;;;;2107427;28;19928;-43
2022/07/21 04:49:33;;;;;;;;;;;;;;;;;;2107397;28;19974;-42
2022/07/21 04:50:34;;;;;;;;;;;;;;;;;;2107347;28;19931;-42
2022/07/21 04:51:35;;;;;;;;;;;;;;;;;;2107502;28;20359;-43
2022/07/21 04:52:36;;;;;;;;;;;;;;;;;;2108256;28;20022;-42
2022/07/21 04:53:37;;;;;;;;;;;;;;;;;;2107657;28;19977;-42
2022/07/21 04:54:38;;;;;;;;;;;;;;;;;;2107821;28;19931;-45
2022/07/21 04:55:39;;;;;;;;;;;;;;;;;;2107804;28;19959;-43
2022/07/21 04:56:40;;;;;;;;;;;;;;;;;;2107170;28;20055;-43
2022/07/21 04:57:41;;;;;;;;;;;;;;;;;;2107780;28;20446;-43
2022/07/21 04:58:41;;;;;;;;;;;;;;;;;;2107688;28;19977;-42
2022/07/21 04:59:42;;;;;;;;;;;;;;;;;;2107318;28;19978;-43
2022/07/21 05:00:43;;;;;;;;;;;;;;;;;;2107461;28;19928;-43
2022/07/21 05:01:44;;;;;;;;;;;;;;;;;;2107681;28;19989;-44
2022/07/21 05:02:45;;;;;;;;;;;;;;;;;;2107045;28;19924;-46
2022/07/21 05:03:46;;;;;;;;;;;;;;;;;;2107308;28;20040;-44
2022/07/21 05:04:47;;;;;;;;;;;;;;;;;;2107959;28;20365;-44
2022/07/21 05:05:48;;;;;;;;;;;;;;;;;;2107767;28;19934;-46
2022/07/21 05:06:49;;;;;;;;;;;;;;;;;;2108036;28;19971;-43
2022/07/21 05:07:50;;;;;;;;;;;;;;;;;;2108047;28;20048;-42
2022/07/21 05:08:51;;;;;;;;;;;;;;;;;;2107569;28;20008;-42
2022/07/21 05:09:52;;;;;;;;;;;;;;;;;;2107441;28;19924;-42
2022/07/21 05:10:53;;;;;;;;;;;;;;;;;;2107202;28;20011;-44
2022/07/21 05:11:54;;;;;;;;;;;;;;;;;;2107519;28;20057;-43
2022/07/21 05:12:55;;;;;;;;;;;;;;;;;;2107212;28;19931;-45
2022/07/21 05:13:58;;;;;;;;;;;;;;;;;;2108252;28;19924;-44
2022/07/21 05:14:59;;;;;;;;;;;;;;;;;;2107209;28;19931;-43
2022/07/21 05:16:00;;;;;;;;;;;;;;;;;;2107138;28;20461;-43
2022/07/21 05:17:00;;;;;;;;;;;;;;;;;;2107232;28;19924;-44
2022/07/21 05:18:01;;;;;;;;;;;;;;;;;;2107504;28;19931;-46
2022/07/21 05:19:02;;;;;;;;;;;;;;;;;;2107508;28;19977;-45
2022/07/21 05:20:03;;;;;;;;;;;;;;;;;;2107797;28;20011;-44
2022/07/21 05:21:04;;;;;;;;;;;;;;;;;;2107090;28;19919;-46
2022/07/21 05:22:05;;;;;;;;;;;;;;;;;;2107558;28;19923;-44
2022/07/21 05:23:08;;;;;;;;;;;;;;;;;;2107769;28;20361;-46
2022/07/21 05:24:09;;;;;;;;;;;;;;;;;;2106599;28;20363;-45
2022/07/21 05:25:10;;;;;;;;;;;;;;;;;;2106958;28;20018;-46
2022/07/21 05:26:12;;;;;;;;;;;;;;;;;;2107888;28;20438;-45
2022/07/21 05:27:13;;;;;;;;;;;;;;;;;;2107328;28;19960;-44
2022/07/21 05:28:14;;;;;;;;;;;;;;;;;;2107041;28;19974;-44
2022/07/21 05:29:15;;;;;;;;;;;;;;;;;;2107441;28;20296;-45
2022/07/21 05:30:15;;;;;;;;;;;;;;;;;;2107277;28;19993;-45
2022/07/21 05:31:16;;;;;;;;;;;;;;;;;;2107845;28;20013;-45
2022/07/21 05:32:17;;;;;;;;;;;;;;;;;;2107184;28;20328;-44
2022/07/21 05:33:19;;;;;;;;;;;;;;;;;;2107422;28;19924;-45
2022/07/21 05:34:20;;;;;;;;;;;;;;;;;;2107171;28;19924;-44
2022/07/21 05:35:21;;;;;;;;;;;;;;;;;;2107578;28;19993;-45
2022/07/21 05:36:22;;;;;;;;;;;;;;;;;;2107931;28;20361;-44
2022/07/21 05:37:23;;;;;;;;;;;;;;;;;;2107551;28;19932;-45
2022/07/21 05:38:25;;;;;;;;;;;;;;;;;;2107445;28;20027;-46
2022/07/21 05:39:28;;;;;;;;;;;;;;;;;;2107338;28;19960;-46
2022/07/21 05:40:30;;;;;;;;;;;;;;;;;;2108320;28;19951;-44
2022/07/21 05:41:33;;;;;;;;;;;;;;;;;;2107056;28;20293;-44
2022/07/21 05:42:34;;;;;;;;;;;;;;;;;;2107261;28;19929;-44
2022/07/21 05:43:35;;;;;;;;;;;;;;;;;;2107821;28;20012;-44
2022/07/21 05:44:36;;;;;;;;;;;;;;;;;;2107628;28;19928;-46
2022/07/21 05:45:36;;;;;;;;;;;;;;;;;;2107561;28;19959;-45
2022/07/21 05:46:37;;;;;;;;;;;;;;;;;;2107041;28;19931;-50
2022/07/21 05:47:39;;;;;;;;;;;;;;;;;;2106880;28;20351;-47
2022/07/21 05:48:40;;;;;;;;;;;;;;;;;;2107387;28;20013;-45
2022/07/21 05:49:41;;;;;;;;;;;;;;;;;;2107184;28;19972;-44
2022/07/21 05:50:41;;;;;;;;;;;;;;;;;;2106904;28;20003;-44
2022/07/21 05:51:42;;;;;;;;;;;;;;;;;;2106869;28;19924;-44
2022/07/21 05:52:43;;;;;;;;;;;;;;;;;;2107783;28;19967;-46
2022/07/21 05:53:44;;;;;;;;;;;;;;;;;;2106999;28;19928;-45
2022/07/21 05:54:45;;;;;;;;;;;;;;;;;;2108159;28;19931;-44
2022/07/21 05:55:47;;;;;;;;;;;;;;;;;;2107000;28;20094;-47
2022/07/21 05:56:48;;;;;;;;;;;;;;;;;;2107002;28;20457;-46
2022/07/21 05:57:49;;;;;;;;;;;;;;;;;;2106761;28;19981;-45
2022/07/21 05:58:50;;;;;;;;;;;;;;;;;;2106946;28;19979;-46
2022/07/21 05:59:52;;;;;;;;;;;;;;;;;;2107792;28;19931;-46
2022/07/21 06:02:08;;;;;;;;;;;;;;;;;;2107393;28;19939;-47
2022/07/21 06:03:10;;;;;;;;;;;;;;;;;;2107202;28;19977;-44
2022/07/21 06:04:13;;;;;;;;;;;;;;;;;;2107357;28;19928;-47
2022/07/21 06:05:14;;;;;;;;;;;;;;;;;;2106969;28;20316;-45
2022/07/21 06:06:16;;;;;;;;;;;;;;;;;;2107153;28;19930;-46
2022/07/21 06:07:17;;;;;;;;;;;;;;;;;;2107517;28;19963;-46
2022/07/21 06:08:18;;;;;;;;;;;;;;;;;;2107428;28;19924;-46
2022/07/21 06:09:19;;;;;;;;;;;;;;;;;;2106639;28;20288;-45
2022/07/21 06:10:19;;;;;;;;;;;;;;;;;;2106835;28;19955;-46
2022/07/21 06:11:23;;;;;;;;;;;;;;;;;;2102903;28;20393;-45
2022/07/21 06:12:24;;;;;;;;;;;;;;;;;;2098483;28;19963;-45
2022/07/21 06:13:25;;;;;;;;;;;;;;;;;;2099196;28;19925;-45
2022/07/21 06:14:26;;;;;;;;;;;;;;;;;;2099340;28;19924;-45
2022/07/21 06:15:27;;;;;;;;;;;;;;;;;;2098926;28;20011;-46
2022/07/21 06:16:28;;;;;;;;;;;;;;;;;;2099566;28;20274;-45
2022/07/21 06:17:31;;;;;;;;;;;;;;;;;;2098796;28;19972;-46
2022/07/21 06:18:32;;;;;;;;;;;;;;;;;;2098925;28;19951;-46
2022/07/21 06:19:34;;;;;;;;;;;;;;;;;;2098987;28;19974;-45
2022/07/21 06:20:36;;;;;;;;;;;;;;;;;;2098851;28;19925;-45
2022/07/21 06:21:37;;;;;;;;;;;;;;;;;;2098910;28;19982;-46
2022/07/21 06:22:44;;;;;;;;;;;;;;;;;;2099090;28;19928;-44
2022/07/21 06:23:45;;;;;;;;;;;;;;;;;;2098640;28;20404;-44
2022/07/21 06:24:46;;;;;;;;;;;;;;;;;;2098805;28;19934;-43
2022/07/21 06:25:46;;;;;;;;;;;;;;;;;;2098275;28;20393;-43
2022/07/21 06:26:47;;;;;;;;;;;;;;;;;;2098359;28;19960;-45
2022/07/21 06:27:48;;;;;;;;;;;;;;;;;;2098727;28;19974;-43
2022/07/21 06:28:50;;;;;;;;;;;;;;;;;;2098191;28;19928;-44
2022/07/21 06:29:51;;;;;;;;;;;;;;;;;;2099099;28;19931;-46
2022/07/21 06:30:52;;;;;;;;;;;;;;;;;;2102544;28;19973;-44
2022/07/21 06:31:54;;;;;;;;;;;;;;;;;;2107602;28;20314;-44
2022/07/21 06:32:54;;;;;;;;;;;;;;;;;;2106526;28;20407;-44
2022/07/21 06:33:55;;;;;;;;;;;;;;;;;;2107419;28;19924;-45
2022/07/21 06:34:57;;;;;;;;;;;;;;;;;;2106692;28;19924;-44
2022/07/21 06:35:58;;;;;;;;;;;;;;;;;;2105502;28;19935;-44
2022/07/21 06:36:59;;;;;;;;;;;;;;;;;;2103417;28;19974;-44
2022/07/21 06:38:00;;;;;;;;;;;;;;;;;;2103255;28;19924;-46
2022/07/21 06:39:01;;;;;;;;;;;;;;;;;;2103079;28;19928;-45
2022/07/21 06:40:03;;;;;;;;;;;;;;;;;;2099168;28;19925;-46
2022/07/21 06:41:04;;;;;;;;;;;;;;;;;;2098088;28;19982;-45
2022/07/21 06:42:05;;;;;;;;;;;;;;;;;;2098907;28;19961;-44
2022/07/21 06:43:06;;;;;;;;;;;;;;;;;;2099292;28;19972;-46
2022/07/21 06:44:27;;;;;;;;;;;;;;;;;;2098436;28;20011;-46
2022/07/21 06:45:46;;;;;;;;;;;;;;;;;;2098147;28;20312;-46
2022/07/21 06:46:47;;;;;;;;;;;;;;;;;;2099192;28;19924;-45
2022/07/21 06:47:49;;;;;;;;;;;;;;;;;;2098928;28;19930;-45
2022/07/21 06:48:49;;;;;;;;;;;;;;;;;;2098664;28;19928;-47
2022/07/21 06:49:50;;;;;;;;;;;;;;;;;;2098709;28;19925;-45
2022/07/21 06:50:51;;;;;;;;;;;;;;;;;;2098648;28;19932;-47
2022/07/21 06:51:52;;;;;;;;;;;;;;;;;;2097875;28;19924;-45
2022/07/21 06:52:53;;;;;;;;;;;;;;;;;;2098584;28;19929;-46
2022/07/21 06:53:54;;;;;;;;;;;;;;;;;;2098254;28;19935;-46
2022/07/21 06:54:55;;;;;;;;;;;;;;;;;;2098224;28;19928;-45
2022/07/21 06:55:56;;;;;;;;;;;;;;;;;;2098387;28;20031;-43
2022/07/21 06:57:03;;;;;;;;;;;;;;;;;;2098117;28;20290;-44
2022/07/21 06:58:04;;;;;;;;;;;;;;;;;;2098250;28;19971;-46
2022/07/21 06:59:05;;;;;;;;;;;;;;;;;;2098608;28;20016;-43
2022/07/21 07:00:06;;;;;;;;;;;;;;;;;;2098597;28;19931;-43
2022/07/21 07:01:08;;;;;;;;;;;;;;;;;;2098493;28;20222;-45